Time;durP1;ratioP1;P1;durP2;ratioP2;P2;SDS_P1;SDS_P2;PMS_P1;PMS_P2;Temp;Humidity;BMP_temperature;BMP_pressure;BME280_temperature;BME280_humidity;BME280_pressure;Samples;Min_cycle;Max_cycle;Signal;HPM_P1;HPM_P2
2022/08/04 00:01:22;;;;;;;5.22;4.00;;;;;;;;;;10462457;28;20028;-74
2022/08/04 00:06:33;;;;;;;4.97;3.40;;;;;;;;;;10433258;28;20071;-76
2022/08/04 00:11:33;;;;;;;4.35;3.88;;;;;;;;;;10471553;28;20041;-75
2022/08/04 00:16:39;;;;;;;6.00;3.78;;;;;;;;;;10473450;28;20481;-73
2022/08/04 00:21:43;;;;;;;4.53;3.78;;;;;;;;;;10449573;28;20112;-73
2022/08/04 00:26:44;;;;;;;6.25;3.63;;;;;;;;;;10467352;28;20059;-74
2022/08/04 00:31:44;;;;;;;4.78;4.10;;;;;;;;;;10465567;28;20033;-74
2022/08/04 00:36:45;;;;;;;5.18;4.10;;;;;;;;;;10481795;28;20466;-74
2022/08/04 00:41:48;;;;;;;6.55;4.15;;;;;;;;;;10456220;28;20035;-75
2022/08/04 00:46:48;;;;;;;5.10;4.43;;;;;;;;;;10458090;28;20028;-75
2022/08/04 00:51:55;;;;;;;5.80;3.60;;;;;;;;;;10457662;28;20037;-73
2022/08/04 00:57:01;;;;;;;5.20;3.85;;;;;;;;;;10456315;28;20025;-74
2022/08/04 01:02:04;;;;;;;4.70;4.22;;;;;;;;;;10476964;28;20139;-75
2022/08/04 01:07:08;;;;;;;5.63;3.85;;;;;;;;;;10474537;28;20102;-74
2022/08/04 01:12:11;;;;;;;6.97;3.88;;;;;;;;;;10473031;28;20079;-72
2022/08/04 01:17:18;;;;;;;5.20;3.95;;;;;;;;;;10473251;28;20403;-75
2022/08/04 01:22:21;;;;;;;7.60;3.90;;;;;;;;;;10455342;28;20116;-74
2022/08/04 01:27:24;;;;;;;4.65;3.85;;;;;;;;;;10473521;28;20025;-74
2022/08/04 01:32:30;;;;;;;7.95;4.13;;;;;;;;;;10472470;28;20021;-74
2022/08/04 01:37:40;;;;;;;5.00;3.80;;;;;;;;;;10442658;28;20021;-74
2022/08/04 01:42:41;;;;;;;9.20;3.72;;;;;;;;;;10441293;28;20025;-74
2022/08/04 01:47:47;;;;;;;10.88;6.70;;;;;;;;;;10465619;28;20024;-74
2022/08/04 01:52:48;;;;;;;9.13;5.70;;;;;;;;;;10458887;28;20029;-74
2022/08/04 01:57:49;;;;;;;8.23;5.40;;;;;;;;;;10470291;28;20025;-74
2022/08/04 02:02:50;;;;;;;7.65;4.38;;;;;;;;;;10475304;28;20513;-75
2022/08/04 02:08:09;;;;;;;7.13;5.05;;;;;;;;;;10447108;28;20129;-74
2022/08/04 02:13:09;;;;;;;7.53;5.32;;;;;;;;;;10475455;28;20032;-74
2022/08/04 02:18:12;;;;;;;5.07;4.20;;;;;;;;;;10478326;28;20029;-74
2022/08/04 02:23:14;;;;;;;8.13;3.85;;;;;;;;;;10453129;28;20021;-74
2022/08/04 02:28:21;;;;;;;11.75;4.50;;;;;;;;;;10452758;28;20020;-74
2022/08/04 02:33:25;;;;;;;6.75;4.75;;;;;;;;;;10452525;28;20032;-74
2022/08/04 02:38:35;;;;;;;9.73;4.47;;;;;;;;;;10435992;28;20021;-75
2022/08/04 02:43:37;;;;;;;9.07;4.82;;;;;;;;;;10473445;28;20410;-74
2022/08/04 02:48:39;;;;;;;6.35;4.18;;;;;;;;;;10451816;28;20021;-74
2022/08/04 02:53:40;;;;;;;6.75;4.63;;;;;;;;;;10470056;28;20064;-74
2022/08/04 02:58:41;;;;;;;4.97;3.92;;;;;;;;;;10481710;28;20017;-74
2022/08/04 03:04:01;;;;;;;6.82;4.93;;;;;;;;;;10479176;28;20542;-74
2022/08/04 03:09:27;;;;;;;17.48;4.95;;;;;;;;;;10444122;28;20052;-74
2022/08/04 03:14:37;;;;;;;7.55;5.32;;;;;;;;;;10466624;28;20506;-75
2022/08/04 03:19:56;;;;;;;7.40;5.28;;;;;;;;;;10451619;28;20021;-74
2022/08/04 03:24:56;;;;;;;8.18;5.28;;;;;;;;;;10450839;28;20529;-75
2022/08/04 03:30:04;;;;;;;6.68;5.15;;;;;;;;;;10452028;28;20082;-74
2022/08/04 03:35:04;;;;;;;;;;;;;;;;;;10434634;28;20033;-74
2022/08/04 03:40:23;;;;;;;8.50;4.82;;;;;;;;;;10463907;28;19991;-74
2022/08/04 03:45:23;;;;;;;10.20;5.68;;;;;;;;;;10468516;28;20063;-74
2022/08/04 03:50:42;;;;;;;6.32;5.15;;;;;;;;;;10451545;28;20471;-74
2022/08/04 03:56:01;;;;;;;7.30;5.40;;;;;;;;;;10478213;28;20029;-75
2022/08/04 04:01:02;;;;;;;20.10;4.68;;;;;;;;;;10468465;28;20025;-75
2022/08/04 04:06:31;;;;;;;6.97;5.00;;;;;;;;;;10452858;28;20036;-74
2022/08/04 04:11:41;;;;;;;9.20;4.75;;;;;;;;;;10440736;28;20068;-75
2022/08/04 04:16:44;;;;;;;11.10;5.85;;;;;;;;;;10478293;28;20087;-74
2022/08/04 04:22:02;;;;;;;9.02;5.20;;;;;;;;;;10459121;28;20048;-75
2022/08/04 04:27:08;;;;;;;7.43;4.95;;;;;;;;;;10458846;28;20407;-75
2022/08/04 04:32:28;;;;;;;10.52;4.78;;;;;;;;;;10477058;28;20428;-75
2022/08/04 04:37:40;;;;;;;8.48;4.55;;;;;;;;;;10475216;28;20082;-74
2022/08/04 04:43:00;;;;;;;7.30;4.72;;;;;;;;;;10478637;28;20384;-75
2022/08/04 04:48:05;;;;;;;10.73;4.63;;;;;;;;;;10475117;28;20032;-75
2022/08/04 04:53:12;;;;;;;7.60;5.22;;;;;;;;;;10478348;28;20025;-74
2022/08/04 04:58:14;;;;;;;11.70;5.97;;;;;;;;;;10457248;28;20025;-76
2022/08/04 05:03:17;;;;;;;6.63;4.60;;;;;;;;;;10474497;28;20021;-74
2022/08/04 05:08:17;;;;;;;5.05;4.20;;;;;;;;;;10473403;28;20059;-74
2022/08/04 05:13:24;;;;;;;6.93;3.85;;;;;;;;;;10493195;28;20039;-74
2022/08/04 05:18:25;;;;;;;6.85;4.38;;;;;;;;;;10471159;28;20410;-74
2022/08/04 05:23:27;;;;;;;18.67;5.20;;;;;;;;;;10476266;28;20033;-74
2022/08/04 05:28:32;;;;;;;4.30;3.90;;;;;;;;;;10468577;28;20017;-72
2022/08/04 05:33:36;;;;;;;6.00;4.30;;;;;;;;;;10482556;28;20425;-73
2022/08/04 05:38:38;;;;;;;5.65;3.65;;;;;;;;;;10457411;28;20104;-74
2022/08/04 05:43:40;;;;;;;5.97;3.83;;;;;;;;;;10455474;28;20071;-74
2022/08/04 05:48:41;;;;;;;11.98;4.13;;;;;;;;;;10489312;28;20028;-74
2022/08/04 05:53:43;;;;;;;6.90;4.85;;;;;;;;;;10483632;28;20501;-75
2022/08/04 05:58:43;;;;;;;7.05;4.40;;;;;;;;;;10470660;28;20021;-74
2022/08/04 06:03:45;;;;;;;7.27;3.60;;;;;;;;;;10462526;28;20557;-75
2022/08/04 06:08:46;;;;;;;9.98;4.63;;;;;;;;;;10480765;28;20052;-76
2022/08/04 06:13:52;;;;;;;8.27;3.80;;;;;;;;;;10472838;28;20024;-74
2022/08/04 06:18:52;;;;;;;11.10;3.55;;;;;;;;;;10474603;28;20009;-74
2022/08/04 06:23:54;;;;;;;6.13;3.53;;;;;;;;;;10470778;28;20504;-74
2022/08/04 06:28:55;;;;;;;4.35;3.42;;;;;;;;;;10482799;28;20028;-75
2022/08/04 06:33:56;;;;;;;8.73;4.22;;;;;;;;;;10477017;28;20019;-75
2022/08/04 06:38:58;;;;;;;7.40;4.30;;;;;;;;;;10458396;28;20104;-76
2022/08/04 06:43:59;;;;;;;12.20;3.53;;;;;;;;;;10469592;28;20103;-74
2022/08/04 06:49:00;;;;;;;12.45;5.53;;;;;;;;;;10481747;28;20024;-74
2022/08/04 06:54:00;;;;;;;7.40;4.32;;;;;;;;;;10453108;28;20086;-74
2022/08/04 06:59:02;;;;;;;16.40;5.43;;;;;;;;;;10469292;28;20032;-73
2022/08/04 07:04:03;;;;;;;8.32;5.18;;;;;;;;;;10468590;28;20259;-74
2022/08/04 07:09:04;;;;;;;11.23;4.75;;;;;;;;;;10467291;28;20036;-74
2022/08/04 07:14:05;;;;;;;9.27;4.43;;;;;;;;;;10465019;28;20062;-74
2022/08/04 07:19:05;;;;;;;8.75;4.57;;;;;;;;;;10467405;28;20025;-74
2022/08/04 07:24:06;;;;;;;7.22;4.28;;;;;;;;;;10466408;28;20021;-74
2022/08/04 07:29:06;;;;;;;5.63;3.93;;;;;;;;;;10474411;28;20028;-74
2022/08/04 07:34:07;;;;;;;14.33;4.93;;;;;;;;;;10448934;28;20414;-75
2022/08/04 07:39:07;;;;;;;8.43;3.97;;;;;;;;;;10467612;28;20259;-74
2022/08/04 07:44:08;;;;;;;8.75;3.85;;;;;;;;;;10449860;28;20025;-74
2022/08/04 07:49:08;;;;;;;13.95;3.58;;;;;;;;;;10466196;28;20095;-74
2022/08/04 07:54:09;;;;;;;5.63;4.33;;;;;;;;;;10474406;28;20443;-74
2022/08/04 07:59:10;;;;;;;6.65;4.07;;;;;;;;;;10473211;28;20023;-74
2022/08/04 08:04:10;;;;;;;10.02;4.65;;;;;;;;;;10464489;28;20025;-74
2022/08/04 08:09:12;;;;;;;8.55;5.00;;;;;;;;;;10437585;28;1149130;-74
2022/08/04 08:14:13;;;;;;;16.80;5.47;;;;;;;;;;10458969;28;20028;-75
2022/08/04 08:19:14;;;;;;;8.60;4.30;;;;;;;;;;10486256;28;20017;-74
2022/08/04 08:24:15;;;;;;;8.27;3.83;;;;;;;;;;10475173;28;20416;-73
2022/08/04 08:29:15;;;;;;;6.55;3.53;;;;;;;;;;10459656;28;20032;-74
2022/08/04 08:34:15;;;;;;;5.57;2.87;;;;;;;;;;10474906;28;20017;-73
2022/08/04 08:39:37;;;;;;;11.25;3.10;;;;;;;;;;10494199;28;20074;-74
2022/08/04 08:44:58;;;;;;;5.28;2.13;;;;;;;;;;10456671;28;20025;-75
2022/08/04 08:50:07;;;;;;;9.13;2.40;;;;;;;;;;10457149;28;20521;-74
2022/08/04 08:55:26;;;;;;;4.70;2.28;;;;;;;;;;10456482;28;20059;-73
2022/08/04 09:00:45;;;;;;;2.20;2.00;;;;;;;;;;10473847;28;20013;-74
2022/08/04 09:06:04;;;;;;;5.75;2.60;;;;;;;;;;10472320;28;20100;-75
2022/08/04 09:11:05;;;;;;;4.50;2.47;;;;;;;;;;10457191;28;20442;-75
2022/08/04 09:16:11;;;;;;;3.35;2.33;;;;;;;;;;10488215;28;20040;-76
2022/08/04 09:21:23;;;;;;;5.68;2.33;;;;;;;;;;10472463;28;20109;-74
2022/08/04 09:26:30;;;;;;;4.30;2.30;;;;;;;;;;10454947;28;20025;-76
2022/08/04 09:31:33;;;;;;;6.07;2.20;;;;;;;;;;10454684;28;20028;-75
2022/08/04 09:36:55;;;;;;;2.38;1.90;;;;;;;;;;10454558;28;20025;-75
2022/08/04 09:42:16;;;;;;;8.65;2.55;;;;;;;;;;10454213;28;20024;-74
2022/08/04 09:47:23;;;;;;;12.80;1.88;;;;;;;;;;10485222;28;20044;-75
2022/08/04 09:52:42;;;;;;;2.72;1.88;;;;;;;;;;10455527;28;20028;-74
2022/08/04 09:58:01;;;;;;;3.58;1.52;;;;;;;;;;10474851;28;20501;-72
2022/08/04 10:03:01;;;;;;;1.73;1.20;;;;;;;;;;10454859;28;20029;-73
2022/08/04 10:08:01;;;;;;;5.03;1.53;;;;;;;;;;10472052;28;20053;-74
2022/08/04 10:13:14;;;;;;;2.53;1.52;;;;;;;;;;10453810;28;20597;-74
2022/08/04 10:18:27;;;;;;;4.68;1.90;;;;;;;;;;10454410;28;20449;-73
2022/08/04 10:23:31;;;;;;;11.15;2.40;;;;;;;;;;10477209;28;20020;-74
2022/08/04 10:28:34;;;;;;;4.93;2.40;;;;;;;;;;10452679;28;20039;-73
2022/08/04 10:33:48;;;;;;;8.38;3.08;;;;;;;;;;10480953;28;20020;-74
2022/08/04 10:38:56;;;;;;;7.57;3.20;;;;;;;;;;10471121;28;20475;-76
2022/08/04 10:43:56;;;;;;;6.97;2.22;;;;;;;;;;10470169;28;20063;-73
2022/08/04 10:49:03;;;;;;;5.13;2.67;;;;;;;;;;10469526;28;20079;-74
2022/08/04 10:54:12;;;;;;;5.15;2.92;;;;;;;;;;10476882;28;20017;-74
2022/08/04 10:59:17;;;;;;;4.22;2.17;;;;;;;;;;10469176;28;20021;-74
2022/08/04 11:04:24;;;;;;;3.78;1.63;;;;;;;;;;10480471;28;20020;-74
2022/08/04 11:09:24;;;;;;;2.28;1.33;;;;;;;;;;10465500;28;20049;-81
2022/08/04 11:14:32;;;;;;;3.45;1.52;;;;;;;;;;10477560;28;20040;-75
2022/08/04 11:19:38;;;;;;;3.22;1.50;;;;;;;;;;10468829;28;20082;-74
2022/08/04 11:24:38;;;;;;;3.17;1.45;;;;;;;;;;10450747;28;20017;-74
2022/08/04 11:29:44;;;;;;;3.92;1.65;;;;;;;;;;10470014;28;20023;-74
2022/08/04 11:34:47;;;;;;;2.15;1.58;;;;;;;;;;10451771;28;20017;-74
2022/08/04 11:39:52;;;;;;;2.83;1.58;;;;;;;;;;10473493;28;20016;-74
2022/08/04 11:44:59;;;;;;;3.22;1.60;;;;;;;;;;10476710;28;20024;-73
2022/08/04 11:49:59;;;;;;;;;;;;;;;;;;10455275;28;20062;-73
2022/08/04 11:55:02;;;;;;;4.28;1.77;;;;;;;;;;10451352;28;20283;-75
2022/08/04 12:00:09;;;;;;;2.17;1.85;;;;;;;;;;10481193;28;20019;-74
2022/08/04 12:05:09;;;;;;;2.65;2.17;;;;;;;;;;10451338;28;20100;-74
2022/08/04 12:10:18;;;;;;;4.80;1.77;;;;;;;;;;10445233;28;20155;-74
2022/08/04 12:15:54;;;;;;;1.98;1.63;;;;;;;;;;10444926;28;20021;-74
2022/08/04 12:20:59;;;;;;;3.20;2.08;;;;;;;;;;10417868;28;20021;-75
2022/08/04 12:26:04;;;;;;;2.95;1.50;;;;;;;;;;10476650;28;20025;-74
2022/08/04 12:31:06;;;;;;;1.70;1.60;;;;;;;;;;10489169;28;20029;-74
2022/08/04 12:36:14;;;;;;;3.92;1.55;;;;;;;;;;10449836;28;20017;-74
2022/08/04 12:41:20;;;;;;;3.08;1.80;;;;;;;;;;10457978;28;20115;-75
2022/08/04 12:46:25;;;;;;;2.30;1.70;;;;;;;;;;10474467;28;20021;-74
2022/08/04 12:51:26;;;;;;;5.82;3.85;;;;;;;;;;10473930;28;20326;-75
2022/08/04 12:56:27;;;;;;;3.47;2.00;;;;;;;;;;10495506;28;20102;-74
2022/08/04 13:01:28;;;;;;;12.50;6.47;;;;;;;;;;10480653;28;20013;-74
2022/08/04 13:06:33;;;;;;;1.75;1.58;;;;;;;;;;10456642;28;20021;-74
2022/08/04 13:11:36;;;;;;;7.88;2.08;;;;;;;;;;10472267;28;20130;-75
2022/08/04 13:16:36;;;;;;;4.57;2.17;;;;;;;;;;10457223;28;20023;-74
2022/08/04 13:21:41;;;;;;;5.55;1.98;;;;;;;;;;10472422;28;20116;-74
2022/08/04 13:26:56;;;;;;;5.20;2.03;;;;;;;;;;10472342;28;20036;-74
2022/08/04 13:31:58;;;;;;;2.38;1.88;;;;;;;;;;10472940;28;20017;-74
2022/08/04 13:36:58;;;;;;;3.40;2.00;;;;;;;;;;10455075;28;20029;-75
2022/08/04 13:42:01;;;;;;;2.97;1.83;;;;;;;;;;10474895;28;20013;-74
2022/08/04 13:47:04;;;;;;;3.42;2.00;;;;;;;;;;10471747;28;20020;-74
2022/08/04 13:52:05;;;;;;;3.03;1.92;;;;;;;;;;10470856;28;20134;-74
2022/08/04 13:57:09;;;;;;;5.05;1.63;;;;;;;;;;10471084;28;20025;-74
2022/08/04 14:02:21;;;;;;;4.60;1.90;;;;;;;;;;10454718;28;20029;-74
2022/08/04 14:07:24;;;;;;;5.63;2.13;;;;;;;;;;10452163;28;20032;-75
2022/08/04 14:12:24;;;;;;;1.70;1.58;;;;;;;;;;10453011;28;20041;-73
2022/08/04 14:17:25;;;;;;;2.90;2.20;;;;;;;;;;10454203;28;20096;-76
2022/08/04 14:22:26;;;;;;;6.22;2.20;;;;;;;;;;10470109;28;20275;-75
2022/08/04 14:27:39;;;;;;;6.43;3.45;;;;;;;;;;10469670;28;20072;-75
2022/08/04 14:32:52;;;;;;;7.00;2.08;;;;;;;;;;10436449;28;20127;-75
2022/08/04 14:37:57;;;;;;;3.15;2.00;;;;;;;;;;10469325;28;20047;-75
2022/08/04 14:42:58;;;;;;;2.25;2.05;;;;;;;;;;10448441;28;20029;-74
2022/08/04 14:47:59;;;;;;;3.78;2.33;;;;;;;;;;10452928;28;20025;-75
2022/08/04 14:53:03;;;;;;;7.75;2.38;;;;;;;;;;10466402;28;20398;-75
2022/08/04 14:58:04;;;;;;;2.50;2.30;;;;;;;;;;10450625;28;20014;-74
2022/08/04 15:03:08;;;;;;;3.80;2.13;;;;;;;;;;10450661;28;20036;-74
2022/08/04 15:08:09;;;;;;;4.13;2.35;;;;;;;;;;10468768;28;20106;-74
2022/08/04 15:13:11;;;;;;;3.70;2.25;;;;;;;;;;10473153;28;20036;-77
2022/08/04 15:18:11;;;;;;;4.93;2.40;;;;;;;;;;10470666;28;20370;-73
2022/08/04 15:23:12;;;;;;;2.33;2.13;;;;;;;;;;10465695;28;20017;-74
2022/08/04 15:28:15;;;;;;;4.10;2.42;;;;;;;;;;10451545;28;20119;-74
2022/08/04 15:33:22;;;;;;;2.55;1.90;;;;;;;;;;10467857;28;20013;-73
2022/08/04 15:38:33;;;;;;;3.00;2.22;;;;;;;;;;10465538;28;20017;-75
2022/08/04 15:43:54;;;;;;;4.20;2.53;;;;;;;;;;10467066;28;20453;-75
2022/08/04 15:48:54;;;;;;;4.93;2.53;;;;;;;;;;10465886;28;20491;-75
2022/08/04 15:53:57;;;;;;;7.88;2.65;;;;;;;;;;10473359;28;20077;-75
2022/08/04 15:58:58;;;;;;;3.92;2.33;;;;;;;;;;10469922;28;20049;-75
2022/08/04 16:03:58;;;;;;;2.08;1.88;;;;;;;;;;10467511;28;20044;-76
2022/08/04 16:09:02;;;;;;;3.47;2.50;;;;;;;;;;10471740;28;20423;-75
2022/08/04 16:14:04;;;;;;;10.00;2.90;;;;;;;;;;10455078;28;20025;-75
2022/08/04 16:19:23;;;;;;;5.78;2.40;;;;;;;;;;10457568;28;20478;-74
2022/08/04 16:24:33;;;;;;;4.38;2.50;;;;;;;;;;10458813;28;20029;-75
2022/08/04 16:29:38;;;;;;;7.72;2.83;;;;;;;;;;10474167;28;20025;-75
2022/08/04 16:34:55;;;;;;;8.25;2.85;;;;;;;;;;10457172;28;20017;-75
2022/08/04 16:40:14;;;;;;;4.00;2.83;;;;;;;;;;10488210;28;20605;-75
2022/08/04 16:45:14;;;;;;;3.95;2.83;;;;;;;;;;10483538;28;20029;-73
2022/08/04 16:50:16;;;;;;;8.02;4.00;;;;;;;;;;10456305;28;20025;-75
2022/08/04 16:55:17;;;;;;;4.93;2.63;;;;;;;;;;10473257;28;20020;-74
2022/08/04 17:00:26;;;;;;;4.95;2.88;;;;;;;;;;10455844;28;20073;-76
2022/08/04 17:05:27;;;;;;;5.05;2.75;;;;;;;;;;10445138;28;20028;-74
2022/08/04 17:10:35;;;;;;;5.50;2.90;;;;;;;;;;10473678;28;20049;-73
2022/08/04 17:15:35;;;;;;;6.40;3.50;;;;;;;;;;10473301;28;20028;-75
2022/08/04 17:20:38;;;;;;;5.45;3.47;;;;;;;;;;10455370;28;20017;-74
2022/08/04 17:25:49;;;;;;;6.38;3.50;;;;;;;;;;10478653;28;20111;-74
2022/08/04 17:30:49;;;;;;;12.68;4.30;;;;;;;;;;10474488;28;20100;-76
2022/08/04 17:35:50;;;;;;;11.68;3.38;;;;;;;;;;10474325;28;20112;-74
2022/08/04 17:40:52;;;;;;;6.50;4.57;;;;;;;;;;10454671;28;20021;-75
2022/08/04 17:46:11;;;;;;;9.82;4.10;;;;;;;;;;10472241;28;20020;-76
2022/08/04 17:51:15;;;;;;;8.13;3.45;;;;;;;;;;10471809;28;20029;-75
2022/08/04 17:56:44;;;;;;;11.73;4.00;;;;;;;;;;10471926;28;20092;-75
2022/08/04 18:01:51;;;;;;;12.00;4.20;;;;;;;;;;10444782;28;20116;-75
2022/08/04 18:06:52;;;;;;;11.20;4.50;;;;;;;;;;10453392;28;20112;-74
2022/08/04 18:11:54;;;;;;;6.18;3.45;;;;;;;;;;10472003;28;20053;-75
2022/08/04 18:16:55;;;;;;;6.25;2.95;;;;;;;;;;10474877;28;20039;-75
2022/08/04 18:21:55;;;;;;;7.80;3.03;;;;;;;;;;10470745;28;20112;-74
2022/08/04 18:26:55;;;;;;;11.18;3.80;;;;;;;;;;10452702;28;20048;-76
2022/08/04 18:31:55;;;;;;;10.68;4.55;;;;;;;;;;10470543;28;20036;-73
2022/08/04 18:36:56;;;;;;;11.47;4.00;;;;;;;;;;10451626;28;20029;-75
2022/08/04 18:41:56;;;;;;;7.27;4.60;;;;;;;;;;10453800;28;20113;-75
2022/08/04 18:46:57;;;;;;;13.15;4.63;;;;;;;;;;10476174;28;20056;-74
2022/08/04 18:51:57;;;;;;;9.48;4.07;;;;;;;;;;10473149;28;20025;-75
2022/08/04 18:56:57;;;;;;;10.55;4.32;;;;;;;;;;10472463;28;20025;-75
2022/08/04 19:01:58;;;;;;;6.28;4.45;;;;;;;;;;10452897;28;20545;-74
2022/08/04 19:06:58;;;;;;;8.82;4.60;;;;;;;;;;10471816;28;20486;-75
2022/08/04 19:11:58;;;;;;;8.30;4.57;;;;;;;;;;10484630;28;20151;-75
2022/08/04 19:16:59;;;;;;;17.35;5.15;;;;;;;;;;10458786;28;20104;-75
2022/08/04 19:21:59;;;;;;;10.63;5.30;;;;;;;;;;10468181;28;20013;-75
2022/08/04 19:27:01;;;;;;;8.82;5.05;;;;;;;;;;10451543;28;20037;-75
2022/08/04 19:32:01;;;;;;;7.60;4.78;;;;;;;;;;10452136;28;20081;-74
2022/08/04 19:37:01;;;;;;;12.65;5.05;;;;;;;;;;10467843;28;20628;-75
2022/08/04 19:42:02;;;;;;;11.80;4.57;;;;;;;;;;10480024;28;20391;-73
2022/08/04 19:47:02;;;;;;;7.57;5.03;;;;;;;;;;10475736;28;20548;-74
2022/08/04 19:52:02;;;;;;;11.75;4.90;;;;;;;;;;10484227;28;20474;-75
2022/08/04 19:57:03;;;;;;;9.73;5.83;;;;;;;;;;10477317;28;20028;-75
2022/08/04 20:02:03;;;;;;;7.43;4.43;;;;;;;;;;10459598;28;20094;-75
2022/08/04 20:07:03;;;;;;;8.88;4.63;;;;;;;;;;10459562;28;20021;-74
2022/08/04 20:12:04;;;;;;;10.03;5.10;;;;;;;;;;10486593;28;20045;-74
2022/08/04 20:17:05;;;;;;;9.75;4.60;;;;;;;;;;10458087;28;20017;-75
2022/08/04 20:22:05;;;;;;;12.55;4.68;;;;;;;;;;10476150;28;20017;-74
2022/08/04 20:27:06;;;;;;;7.23;4.53;;;;;;;;;;10459081;28;20032;-74
2022/08/04 20:32:07;;;;;;;10.73;4.25;;;;;;;;;;10475678;28;20091;-74
2022/08/04 20:37:07;;;;;;;12.48;5.05;;;;;;;;;;10484865;28;20107;-74
2022/08/04 20:42:08;;;;;;;9.27;5.40;;;;;;;;;;10457848;28;20017;-75
2022/08/04 20:47:08;;;;;;;12.33;5.57;;;;;;;;;;10487060;28;20100;-74
2022/08/04 20:52:08;;;;;;;9.73;5.53;;;;;;;;;;10456420;28;20028;-76
2022/08/04 20:57:09;;;;;;;6.17;5.10;;;;;;;;;;10457311;28;20025;-74
2022/08/04 21:02:09;;;;;;;9.13;5.28;;;;;;;;;;10457702;28;20705;-75
2022/08/04 21:07:09;;;;;;;6.57;4.40;;;;;;;;;;10479755;28;20547;-75
2022/08/04 21:12:12;;;;;;;8.60;4.90;;;;;;;;;;10475001;28;20055;-74
2022/08/04 21:17:12;;;;;;;8.88;5.20;;;;;;;;;;10473338;28;20017;-74
2022/08/04 21:22:13;;;;;;;5.85;4.13;;;;;;;;;;10456879;28;20474;-75
2022/08/04 21:27:13;;;;;;;5.85;3.65;;;;;;;;;;10455358;28;20398;-74
2022/08/04 21:32:14;;;;;;;11.85;4.90;;;;;;;;;;10472224;28;20082;-74
2022/08/04 21:37:14;;;;;;;10.20;4.53;;;;;;;;;;10475348;28;20009;-74
2022/08/04 21:42:14;;;;;;;8.90;4.43;;;;;;;;;;10455488;28;20506;-74
2022/08/04 21:47:15;;;;;;;7.43;4.25;;;;;;;;;;10476485;28;20025;-75
2022/08/04 21:52:15;;;;;;;15.10;5.50;;;;;;;;;;10473088;28;20053;-74
2022/08/04 21:57:15;;;;;;;6.95;4.70;;;;;;;;;;10485476;28;20491;-75
2022/08/04 22:02:15;;;;;;;8.27;3.70;;;;;;;;;;10454542;28;20025;-74
2022/08/04 22:07:16;;;;;;;7.00;3.97;;;;;;;;;;10455401;28;20082;-74
2022/08/04 22:12:16;;;;;;;5.88;3.67;;;;;;;;;;10454265;28;20527;-76
2022/08/04 22:17:16;;;;;;;8.88;4.50;;;;;;;;;;10489683;28;20467;-75
2022/08/04 22:22:16;;;;;;;7.07;4.40;;;;;;;;;;10459917;28;20025;-76
2022/08/04 22:32:35;;;;;;;7.53;4.80;;;;;;;;;;10483851;28;20075;-74
2022/08/04 22:37:36;;;;;;;7.38;4.97;;;;;;;;;;10453175;28;20045;-75
2022/08/04 22:42:36;;;;;;;10.18;4.32;;;;;;;;;;10483499;28;20032;-75
2022/08/04 22:47:37;;;;;;;7.00;5.10;;;;;;;;;;10452705;28;20025;-75
2022/08/04 22:52:37;;;;;;;9.35;4.53;;;;;;;;;;10453781;28;20480;-75
2022/08/04 22:57:37;;;;;;;8.48;4.22;;;;;;;;;;10435592;28;20399;-75
2022/08/04 23:02:38;;;;;;;5.68;3.83;;;;;;;;;;10488904;28;20505;-75
2022/08/04 23:07:38;;;;;;;5.75;3.88;;;;;;;;;;10470674;28;20415;-76
2022/08/04 23:12:38;;;;;;;5.43;3.80;;;;;;;;;;10480931;28;20036;-75
2022/08/04 23:17:38;;;;;;;4.10;3.35;;;;;;;;;;10483446;28;20053;-75
2022/08/04 23:22:39;;;;;;;5.43;3.45;;;;;;;;;;10451010;28;20017;-75
2022/08/04 23:27:39;;;;;;;5.10;3.53;;;;;;;;;;10451502;28;20162;-75
2022/08/04 23:32:39;;;;;;;7.47;3.67;;;;;;;;;;10476069;28;20027;-75
2022/08/04 23:37:40;;;;;;;5.57;3.28;;;;;;;;;;10477414;28;20025;-74
2022/08/04 23:42:40;;;;;;;6.43;3.90;;;;;;;;;;10450805;28;20406;-74
2022/08/04 23:47:40;;;;;;;5.68;3.95;;;;;;;;;;10451243;28;20506;-76
2022/08/04 23:52:40;;;;;;;7.55;4.30;;;;;;;;;;10450695;28;20455;-75
2022/08/04 23:57:40;;;;;;;6.20;3.95;;;;;;;;;;10452024;28;20045;-75
